Time;durP1;ratioP1;P1;durP2;ratioP2;P2;SDS_P1;SDS_P2;PMS_P1;PMS_P2;Temp;Humidity;BMP_temperature;BMP_pressure;BME280_temperature;BME280_humidity;BME280_pressure;Samples;Min_cycle;Max_cycle;Signal;HPM_P1;HPM_P2
2022/08/11 00:00:32;;;;;;;;;;;;;;;24.11;48.42;99587.66;3129531;28;19925;-62
2022/08/11 00:02:04;;;;;;;;;;;;;;;24.09;48.51;99585.16;3129493;28;19925;-62
2022/08/11 00:03:41;;;;;;;;;;;;;;;24.09;48.38;99587.00;3140918;28;19920;-63
2022/08/11 00:05:16;;;;;;;;;;;;;;;24.10;48.59;99591.31;3135485;28;19943;-61
2022/08/11 00:06:48;;;;;;;;;;;;;;;24.09;48.76;99590.50;3140171;28;19920;-62
2022/08/11 00:08:22;;;;;;;;;;;;;;;24.09;48.48;99589.66;3141213;28;20383;-63
2022/08/11 00:09:54;;;;;;;;;;;;;;;24.05;48.64;99583.84;3135572;28;19924;-63
2022/08/11 00:11:32;;;;;;;;;;;;;;;24.00;49.30;99589.63;3138121;28;20007;-62
2022/08/11 00:13:06;;;;;;;;;;;;;;;23.91;49.01;99574.63;3142718;28;19925;-62
2022/08/11 00:14:38;;;;;;;;;;;;;;;23.90;49.57;99580.97;3143584;28;20347;-62
2022/08/11 00:16:11;;;;;;;;;;;;;;;23.85;49.76;99577.94;3144283;28;19921;-62
2022/08/11 00:17:44;;;;;;;;;;;;;;;23.80;50.39;99580.25;3144673;28;19928;-62
2022/08/11 00:19:21;;;;;;;;;;;;;;;23.76;50.22;99585.03;3145714;28;20288;-62
2022/08/11 00:20:58;;;;;;;;;;;;;;;23.74;50.46;99586.19;3129519;28;19994;-62
2022/08/11 00:22:29;;;;;;;;;;;;;;;23.64;50.95;99577.50;3129425;28;19931;-62
2022/08/11 00:24:01;;;;;;;;;;;;;;;23.62;50.59;99582.94;3146897;28;20546;-62
2022/08/11 00:25:38;;;;;;;;;;;;;;;23.59;51.04;99584.09;3139442;28;19932;-62
2022/08/11 00:27:09;;;;;;;;;;;;;;;23.57;51.04;99577.25;3135156;28;20328;-63
2022/08/11 00:28:41;;;;;;;;;;;;;;;23.49;51.72;99591.34;3138503;28;19920;-62
2022/08/11 00:30:13;;;;;;;;;;;;;;;23.42;51.66;99589.47;3141560;28;20346;-62
2022/08/11 00:31:45;;;;;;;;;;;;;;;23.41;51.96;99580.69;3142312;28;19928;-62
2022/08/11 00:33:17;;;;;;;;;;;;;;;23.41;51.28;99586.00;3146999;28;19983;-62
2022/08/11 00:34:50;;;;;;;;;;;;;;;23.40;51.91;99581.69;3141957;28;20019;-61
2022/08/11 00:36:26;;;;;;;;;;;;;;;23.32;52.29;99581.63;3134315;28;19924;-62
2022/08/11 00:37:59;;;;;;;;;;;;;;;23.26;52.41;99583.06;3142464;28;19920;-65
2022/08/11 00:39:31;;;;;;;;;;;;;;;23.22;52.67;99588.84;3141990;28;19924;-63
2022/08/11 00:41:08;;;;;;;;;;;;;;;23.16;53.08;99590.31;3141700;28;19931;-62
2022/08/11 00:42:43;;;;;;;;;;;;;;;23.11;53.19;99593.44;3143721;28;19920;-62
2022/08/11 00:44:30;;;;;;;;;;;;;;;23.08;53.20;99590.25;3144465;28;19921;-62
2022/08/11 00:46:18;;;;;;;;;;;;;;;23.01;53.89;99586.53;3136328;28;19951;-62
2022/08/11 00:47:56;;;;;;;;;;;;;;;22.92;54.21;99590.91;3145460;28;19928;-62
2022/08/11 00:49:38;;;;;;;;;;;;;;;22.85;54.76;99596.00;3142698;28;20342;-62
2022/08/11 00:51:13;;;;;;;;;;;;;;;22.82;54.64;99596.31;3146350;28;19932;-63
2022/08/11 00:52:55;;;;;;;;;;;;;;;22.79;55.05;99591.31;3146540;28;19921;-63
2022/08/11 00:54:53;;;;;;;;;;;;;;;22.79;54.96;99599.28;3127485;28;19924;-63
2022/08/11 00:56:45;;;;;;;;;;;;;;;22.80;54.86;99606.25;3087856;28;20345;-63
2022/08/11 00:58:36;;;;;;;;;;;;;;;22.79;55.12;99601.94;3139361;28;19924;-63
2022/08/11 01:00:14;;;;;;;;;;;;;;;22.78;55.37;99602.94;3100605;28;19920;-63
2022/08/11 01:02:03;;;;;;;;;;;;;;;22.79;55.20;99599.28;3142563;28;20417;-63
2022/08/11 01:03:47;;;;;;;;;;;;;;;22.79;55.21;99599.28;3121589;28;19931;-63
2022/08/11 01:05:34;;;;;;;;;;;;;;;22.79;55.43;99596.63;3143510;28;20015;-63
2022/08/11 01:07:29;;;;;;;;;;;;;;;22.79;55.50;99595.78;3123889;28;20291;-63
2022/08/11 01:09:22;;;;;;;;;;;;;;;22.77;55.58;99595.09;3141544;28;19921;-63
2022/08/11 01:11:17;;;;;;;;;;;;;;;22.73;55.92;99591.09;3140370;28;19924;-63
2022/08/11 01:13:01;;;;;;;;;;;;;;;22.72;55.35;99579.66;3083780;28;20071;-62
2022/08/11 01:14:50;;;;;;;;;;;;;;;22.73;55.60;99583.13;3121484;28;19921;-63
2022/08/11 01:16:52;;;;;;;;;;;;;;;22.73;55.59;99588.44;3139958;28;19931;-63
2022/08/11 01:18:43;;;;;;;;;;;;;;;22.69;55.46;99583.44;3086629;28;19946;-63
2022/08/11 01:20:29;;;;;;;;;;;;;;;22.69;55.31;99580.78;3093887;28;20317;-62
2022/08/11 01:22:10;;;;;;;;;;;;;;;22.70;55.37;99581.63;3139471;28;19920;-63
2022/08/11 01:24:01;;;;;;;;;;;;;;;22.69;55.68;99574.66;3143786;28;20363;-63
2022/08/11 01:25:53;;;;;;;;;;;;;;;22.70;55.41;99577.13;3138094;28;19956;-63
2022/08/11 01:27:58;;;;;;;;;;;;;;;22.70;55.08;99577.13;3137538;28;19983;-62
2022/08/11 01:29:57;;;;;;;;;;;;;;;22.71;55.00;99573.47;3137170;28;20336;-63
2022/08/11 01:31:48;;;;;;;;;;;;;;;22.70;55.08;99576.31;3134570;28;19924;-63
2022/08/11 01:33:38;;;;;;;;;;;;;;;22.71;55.04;99572.66;3136754;28;19921;-62
2022/08/11 01:35:33;;;;;;;;;;;;;;;22.67;55.27;99564.16;3136561;28;20356;-62
2022/08/11 01:37:20;;;;;;;;;;;;;;;22.67;54.86;99576.63;3132564;28;19924;-62
2022/08/11 01:38:50;;;;;;;;;;;;;;;;;;3093549;28;19930;-62
2022/08/11 01:40:43;;;;;;;;;;;;;;;22.67;55.09;99581.91;3140683;28;19921;-62
2022/08/11 01:44:38;;;;;;;;;;;;;;;22.67;54.94;99576.63;3131459;28;19959;-63
2022/08/11 01:46:13;;;;;;;;;;;;;;;22.67;54.91;99579.25;3133773;28;19931;-63
2022/08/11 01:47:50;;;;;;;;;;;;;;;22.69;54.41;99575.47;3145190;28;20240;-63
2022/08/11 01:49:25;;;;;;;;;;;;;;;22.71;54.39;99577.97;3143570;28;20011;-63
2022/08/11 01:51:02;;;;;;;;;;;;;;;22.72;54.29;99577.00;3146378;28;19921;-63
2022/08/11 01:52:39;;;;;;;;;;;;;;;22.73;54.18;99583.13;3143552;28;19924;-63
2022/08/11 01:54:17;;;;;;;;;;;;;;;22.74;54.32;99582.13;3133317;28;19920;-63
2022/08/11 01:55:56;;;;;;;;;;;;;;;22.77;54.07;99576.53;3140955;28;19924;-64
2022/08/11 01:57:31;;;;;;;;;;;;;;;22.78;53.78;99575.56;3131118;28;20361;-63
2022/08/11 01:59:10;;;;;;;;;;;;;;;22.80;53.76;99581.53;3142724;28;19920;-63
2022/08/11 02:00:48;;;;;;;;;;;;;;;22.82;53.64;99575.06;3131184;28;19925;-63
2022/08/11 02:02:47;;;;;;;;;;;;;;;22.85;53.38;99573.94;3136776;28;20388;-63
2022/08/11 02:04:24;;;;;;;;;;;;;;;22.86;53.32;99578.25;3136865;28;19935;-63
2022/08/11 02:06:53;;;;;;;;;;;;;;;22.86;53.50;99573.78;3145252;28;19932;-63
2022/08/11 02:08:00;;;;;;;;;;;;;;;22.85;53.28;99568.63;3145301;28;20249;-64
2022/08/11 02:09:45;;;;;;;;;;;;;;;22.88;53.19;99566.50;3146153;28;19935;-63
2022/08/11 02:11:29;;;;;;;;;;;;;;;22.87;53.22;99564.84;3130361;28;19920;-64
2022/08/11 02:13:06;;;;;;;;;;;;;;;22.89;53.20;99564.66;3130760;28;19928;-63
2022/08/11 02:14:43;;;;;;;;;;;;;;;22.90;52.96;99569.00;3137443;28;19920;-63
2022/08/11 02:16:17;;;;;;;;;;;;;;;22.92;52.96;99567.00;3130791;28;19974;-63
2022/08/11 02:17:53;;;;;;;;;;;;;;;22.96;52.76;99572.91;3130432;28;20015;-63
2022/08/11 02:25:17;;;;;;;;;;;;;;;22.97;52.60;99567.44;3144201;28;19921;-63
2022/08/11 02:26:53;;;;;;;;;;;;;;;22.97;52.58;99572.75;3130271;28;20342;-63
2022/08/11 02:28:28;;;;;;;;;;;;;;;22.95;52.76;99569.41;3143579;28;19933;-63
2022/08/11 02:30:06;;;;;;;;;;;;;;;22.94;52.34;99568.56;3145744;28;19924;-63
2022/08/11 02:33:34;;;;;;;;;;;;;;;22.93;52.39;99564.22;3136755;28;20320;-63
2022/08/11 02:35:12;;;;;;;;;;;;;;;22.94;52.38;99559.75;3147502;28;19920;-63
2022/08/11 02:36:51;;;;;;;;;;;;;;;22.95;52.29;99566.72;3131222;28;19925;-63
2022/08/11 02:38:27;;;;;;;;;;;;;;;22.94;52.51;99565.06;3135715;28;19936;-63
2022/08/11 02:40:10;;;;;;;;;;;;;;;22.96;52.04;99562.28;3130725;28;20375;-64
2022/08/11 02:43:41;;;;;;;;;;;;;;;22.94;52.30;99565.91;3136412;28;20356;-63
2022/08/11 02:45:18;;;;;;;;;;;;;;;22.94;52.39;99573.88;3141023;28;20035;-64
2022/08/11 02:46:57;;;;;;;;;;;;;;;22.92;52.46;99569.66;3144870;28;20205;-64
2022/08/11 02:50:30;;;;;;;;;;;;;;;22.85;52.46;99566.81;3136083;28;20627;-64
2022/08/11 02:52:08;;;;;;;;;;;;;;;22.86;52.35;99567.63;3146326;28;19927;-63
2022/08/11 02:53:44;;;;;;;;;;;;;;;22.87;52.54;99564.84;3147507;28;19993;-63
2022/08/11 02:55:19;;;;;;;;;;;;;;;22.88;52.23;99570.97;3146846;28;19931;-64
2022/08/11 02:56:57;;;;;;;;;;;;;;;22.88;52.25;99569.16;3138284;28;19920;-64
2022/08/11 02:58:36;;;;;;;;;;;;;;;22.90;52.16;99564.53;3146575;28;19924;-64
2022/08/11 03:00:08;;;;;;;;;;;;;;;22.90;52.18;99569.00;3147708;28;19990;-64
2022/08/11 03:01:49;;;;;;;;;;;;;;;22.90;52.29;99572.50;3138690;28;19921;-64
2022/08/11 03:03:24;;;;;;;;;;;;;;;22.92;52.20;99578.50;3136229;28;19978;-64
2022/08/11 03:05:01;;;;;;;;;;;;;;;22.90;52.11;99571.66;3138897;28;19982;-63
2022/08/11 03:06:36;;;;;;;;;;;;;;;22.90;51.99;99572.50;3142926;28;19924;-63
2022/08/11 03:08:12;;;;;;;;;;;;;;;22.91;51.97;99570.66;3143597;28;19920;-63
2022/08/11 03:09:46;;;;;;;;;;;;;;;22.92;51.98;99580.28;3143950;28;19925;-63
2022/08/11 03:17:04;;;;;;;;;;;;;;;22.88;51.81;99576.28;3141104;28;19924;-62
2022/08/11 03:18:40;;;;;;;;;;;;;;;22.88;51.94;99571.81;3146388;28;20359;-62
2022/08/11 03:20:20;;;;;;;;;;;;;;;22.84;52.00;99577.59;3147032;28;19924;-63
2022/08/11 03:21:57;;;;;;;;;;;;;;;22.84;52.03;99572.28;3140155;28;19925;-63
2022/08/11 03:23:33;;;;;;;;;;;;;;;22.82;52.07;99585.69;3135879;28;20427;-63
2022/08/11 03:25:08;;;;;;;;;;;;;;;22.79;52.35;99580.69;3136351;28;19921;-63
2022/08/11 03:26:47;;;;;;;;;;;;;;;22.74;52.71;99582.97;3142630;28;19921;-63
2022/08/11 03:28:18;;;;;;;;;;;;;;;;;;3130421;28;19924;-64
2022/08/11 03:29:50;;;;;;;;;;;;;;;;;;3143331;28;20026;-63
2022/08/11 03:31:24;;;;;;;;;;;;;;;22.67;52.57;99579.25;3144672;28;20253;-64
2022/08/11 03:34:44;;;;;;;;;;;;;;;22.69;52.36;99579.97;3140439;28;20359;-64
2022/08/11 03:36:24;;;;;;;;;;;;;;;22.69;52.26;99570.16;3142295;28;19920;-64
2022/08/11 03:38:00;;;;;;;;;;;;;;;22.72;52.21;99574.34;3137383;28;19932;-64
2022/08/11 03:39:41;;;;;;;;;;;;;;;22.71;52.70;99577.97;3140584;28;20315;-64
2022/08/11 03:43:18;;;;;;;;;;;;;;;22.61;52.93;99572.75;3141923;28;19924;-63
2022/08/11 03:44:56;;;;;;;;;;;;;;;22.56;53.27;99571.53;3143708;28;19973;-63
2022/08/11 03:46:41;;;;;;;;;;;;;;;22.52;53.27;99580.78;3137444;28;20280;-63
2022/08/11 03:48:19;;;;;;;;;;;;;;;22.46;53.72;99576.91;3144388;28;19938;-63
2022/08/11 03:50:01;;;;;;;;;;;;;;;22.40;53.91;99575.69;3146443;28;20024;-64
2022/08/11 03:51:39;;;;;;;;;;;;;;;22.39;54.03;99578.50;3146633;28;20275;-64
2022/08/11 03:53:16;;;;;;;;;;;;;;;22.40;53.57;99578.34;3146641;28;19924;-63
2022/08/11 03:54:54;;;;;;;;;;;;;;;22.44;53.50;99579.72;3137973;28;19931;-64
2022/08/11 03:56:53;;;;;;;;;;;;;;;22.46;53.73;99576.91;3135508;28;19982;-63
2022/08/11 03:58:42;;;;;;;;;;;;;;;22.49;53.61;99580.09;3082544;28;19925;-63
2022/08/11 04:00:29;;;;;;;;;;;;;;;22.47;53.60;99586.53;3142531;28;19924;-64
2022/08/11 04:02:18;;;;;;;;;;;;;;;22.45;53.79;99584.03;3122785;28;19924;-64
2022/08/11 04:03:59;;;;;;;;;;;;;;;22.46;53.70;99585.72;3135751;28;19925;-64
2022/08/11 04:05:49;;;;;;;;;;;;;;;22.49;53.55;99590.72;3133444;28;19996;-64
2022/08/11 04:07:47;;;;;;;;;;;;;;;22.49;53.66;99590.72;3134742;28;19920;-64
2022/08/11 04:09:36;;;;;;;;;;;;;;;22.51;53.84;99593.22;3135513;28;20069;-64
2022/08/11 04:11:16;;;;;;;;;;;;;;;22.53;53.64;99587.75;3129150;28;19924;-64
2022/08/11 04:13:07;;;;;;;;;;;;;;;22.59;53.36;99592.44;3135170;28;19931;-64
2022/08/11 04:16:56;;;;;;;;;;;;;;;22.67;53.33;99587.22;3135765;28;19921;-64
2022/08/11 04:18:45;;;;;;;;;;;;;;;22.68;53.32;99588.88;3137329;28;19921;-64
2022/08/11 04:20:35;;;;;;;;;;;;;;;22.74;53.12;99592.75;3141635;28;20011;-64
2022/08/11 04:22:15;;;;;;;;;;;;;;;22.76;53.17;99590.78;3140212;28;20003;-64
2022/08/11 04:24:05;;;;;;;;;;;;;;;22.79;53.08;99585.19;3142668;28;19920;-64
2022/08/11 04:25:50;;;;;;;;;;;;;;;22.80;52.69;99587.66;3138233;28;19943;-63
2022/08/11 04:27:32;;;;;;;;;;;;;;;22.86;52.93;99594.19;3136800;28;19978;-63
2022/08/11 04:29:11;;;;;;;;;;;;;;;22.88;52.83;99584.25;3143610;28;19928;-64
2022/08/11 04:30:56;;;;;;;;;;;;;;;22.93;52.86;99596.09;3136714;28;20008;-64
2022/08/11 04:32:36;;;;;;;;;;;;;;;22.97;52.53;99601.94;3137214;28;19989;-64
2022/08/11 04:34:25;;;;;;;;;;;;;;;23.03;52.43;99598.69;3138295;28;19920;-64
2022/08/11 04:36:02;;;;;;;;;;;;;;;23.07;52.85;99599.19;3127252;28;19986;-64
2022/08/11 04:37:48;;;;;;;;;;;;;;;23.07;52.48;99602.72;3144334;28;19931;-64
2022/08/11 04:39:28;;;;;;;;;;;;;;;23.09;52.73;99599.88;3123511;28;19920;-65
2022/08/11 04:41:18;;;;;;;;;;;;;;;23.09;52.72;99597.22;3145393;28;20394;-65
2022/08/11 04:43:21;;;;;;;;;;;;;;;23.10;52.67;99598.88;3138549;28;19925;-63
2022/08/11 04:45:12;;;;;;;;;;;;;;;23.10;52.59;99594.44;3136719;28;20368;-63
2022/08/11 04:47:02;;;;;;;;;;;;;;;23.12;52.65;99596.91;3128183;28;19932;-63
2022/08/11 05:02:55;;;;;;;;;;;;;;;23.23;52.78;99594.00;3132926;28;19920;-66
2022/08/11 05:07:14;;;;;;;;;;;;;;;23.34;52.49;99588.44;3141835;28;19925;-67
2022/08/11 05:09:10;;;;;;;;;;;;;;;23.37;52.35;99585.47;3143662;28;19921;-67
2022/08/11 05:10:47;;;;;;;;;;;;;;;23.45;52.58;99589.16;3144773;28;19931;-68
2022/08/11 05:12:29;;;;;;;;;;;;;;;23.50;52.36;99589.53;3137759;28;19948;-67
2022/08/11 05:35:02;;;;;;;;;;;;;;;23.78;52.41;99599.03;3136959;28;19960;-64
2022/08/11 05:36:38;;;;;;;;;;;;;;;23.81;52.35;99597.84;3141899;28;19962;-64
2022/08/11 05:56:40;;;;;;;;;;;;;;;24.01;51.85;99603.75;3132308;28;19956;-64
2022/08/11 05:58:13;;;;;;;;;;;;;;;23.99;52.00;99595.13;3136090;28;19921;-64
2022/08/11 05:59:45;;;;;;;;;;;;;;;23.99;51.85;99605.75;3135607;28;19921;-64
2022/08/11 06:01:22;;;;;;;;;;;;;;;23.94;51.95;99603.56;3146012;28;19928;-65
2022/08/11 06:02:54;;;;;;;;;;;;;;;23.96;52.11;99600.72;3130680;28;20327;-64
2022/08/11 06:04:26;;;;;;;;;;;;;;;23.96;51.66;99604.25;3144605;28;20309;-65
2022/08/11 06:05:59;;;;;;;;;;;;;;;23.95;51.71;99599.91;3147922;28;19921;-65
2022/08/11 06:07:31;;;;;;;;;;;;;;;23.91;52.07;99609.22;3142497;28;19925;-64
2022/08/11 06:09:03;;;;;;;;;;;;;;;23.93;51.82;99603.72;3142573;28;19935;-64
2022/08/11 06:10:36;;;;;;;;;;;;;;;24.01;51.54;99603.75;3143232;28;20272;-64
2022/08/11 06:12:17;;;;;;;;;;;;;;;24.09;51.73;99598.47;3142285;28;19971;-64
2022/08/11 06:13:48;;;;;;;;;;;;;;;24.22;51.52;99603.31;3138743;28;19979;-64
2022/08/11 06:15:20;;;;;;;;;;;;;;;24.25;51.28;99597.69;3145230;28;20276;-64
2022/08/11 06:16:55;;;;;;;;;;;;;;;24.34;51.05;99601.19;3142570;28;19920;-67
2022/08/11 06:18:28;;;;;;;;;;;;;;;24.41;50.83;99603.06;3130295;28;19921;-63
2022/08/11 06:20:00;;;;;;;;;;;;;;;24.48;50.81;99606.75;3138509;28;20006;-63
2022/08/11 06:21:34;;;;;;;;;;;;;;;24.60;50.71;99601.13;3138741;28;19931;-63
2022/08/11 06:23:08;;;;;;;;;;;;;;;24.70;50.58;99601.81;3136738;28;19928;-64
2022/08/11 06:24:41;;;;;;;;;;;;;;;24.79;50.10;99603.47;3142643;28;19920;-64
2022/08/11 06:26:13;;;;;;;;;;;;;;;24.91;50.27;99596.00;3136766;28;19986;-64
2022/08/11 06:27:47;;;;;;;;;;;;;;;25.03;49.71;99599.16;3139938;28;19925;-64
2022/08/11 06:29:20;;;;;;;;;;;;;;;25.16;49.61;99599.50;3144648;28;19924;-64
2022/08/11 06:30:52;;;;;;;;;;;;;;;25.25;49.12;99592.31;3137266;28;19978;-64
2022/08/11 06:32:25;;;;;;;;;;;;;;;25.34;49.30;99596.63;3136502;28;19935;-64
2022/08/11 06:34:05;;;;;;;;;;;;;;;25.46;49.14;99589.09;3130276;28;19971;-64
2022/08/11 06:35:44;;;;;;;;;;;;;;;25.57;48.59;99583.41;3135249;28;19986;-64
2022/08/11 06:37:20;;;;;;;;;;;;;;;25.67;48.61;99589.38;3136933;28;20011;-64
2022/08/11 06:39:00;;;;;;;;;;;;;;;25.76;47.93;99590.19;3130448;28;19935;-63
2022/08/11 06:40:36;;;;;;;;;;;;;;;25.85;47.92;99583.84;3136639;28;20369;-64
2022/08/11 06:42:13;;;;;;;;;;;;;;;25.94;48.09;99588.16;3141397;28;19920;-63
2022/08/11 06:43:49;;;;;;;;;;;;;;;26.02;47.25;99590.78;3130159;28;19986;-64
2022/08/11 06:45:30;;;;;;;;;;;;;;;26.07;47.21;99584.91;3141956;28;20356;-63
2022/08/11 06:47:05;;;;;;;;;;;;;;;26.16;47.13;99588.38;3142594;28;19924;-63
2022/08/11 06:48:39;;;;;;;;;;;;;;;26.26;47.05;99591.66;3137785;28;19922;-65
2022/08/11 06:52:03;;;;;;;;;;;;;;;26.45;46.49;99591.22;3136602;28;20032;-63
2022/08/11 06:53:36;;;;;;;;;;;;;;;26.53;46.37;99582.31;3136235;28;20033;-65
2022/08/11 06:55:10;;;;;;;;;;;;;;;26.64;46.49;99589.94;3135838;28;19924;-64
2022/08/11 07:00:30;;;;;;;;;;;;;;;27.02;45.76;99591.81;3136197;28;19928;-63
2022/08/11 07:02:06;;;;;;;;;;;;;;;27.12;45.29;99592.38;3133699;28;20310;-63
2022/08/11 07:03:47;;;;;;;;;;;;;;;27.19;45.03;99593.34;3136616;28;19986;-64
2022/08/11 07:05:22;;;;;;;;;;;;;;;27.22;44.90;99593.81;3144128;28;19963;-63
2022/08/11 07:15:44;;;;;;;;;;;;;;;27.29;44.00;99593.09;3145092;28;19994;-65
2022/08/11 07:28:56;;;;;;;;;;;;;;;27.58;43.33;99593.09;3138296;28;19925;-64
2022/08/11 07:30:30;;;;;;;;;;;;;;;27.68;43.58;99590.97;3136185;28;19980;-64
2022/08/11 07:32:08;;;;;;;;;;;;;;;27.75;42.96;99590.25;3135587;28;19925;-66
2022/08/11 07:33:42;;;;;;;;;;;;;;;27.80;43.30;99594.03;3135489;28;19925;-65
2022/08/11 07:35:16;;;;;;;;;;;;;;;27.86;43.05;99600.50;3141021;28;19928;-65
2022/08/11 07:36:50;;;;;;;;;;;;;;;27.93;43.03;99595.25;3145834;28;19924;-65
2022/08/11 07:38:41;;;;;;;;;;;;;;;28.05;42.95;99593.75;3141558;28;19924;-65
2022/08/11 07:40:14;;;;;;;;;;;;;;;28.16;42.80;99595.09;3135303;28;19983;-65
2022/08/11 07:41:47;;;;;;;;;;;;;;;28.24;42.27;99600.34;3135394;28;19972;-66
2022/08/11 07:43:19;;;;;;;;;;;;;;;28.31;41.87;99596.75;3135786;28;19924;-65
2022/08/11 07:52:32;;;;;;;;;;;;;;;28.78;41.65;99595.41;3141968;28;19920;-65
2022/08/11 07:54:04;;;;;;;;;;;;;;;28.96;41.21;99591.44;3134033;28;19968;-65
2022/08/11 07:55:37;;;;;;;;;;;;;;;29.09;40.96;99588.88;3146143;28;20352;-65
2022/08/11 08:19:06;;;;;;;;;;;;;;;30.32;38.57;99573.88;3140159;28;19964;-66
2022/08/11 08:20:39;;;;;;;;;;;;;;;30.45;38.48;99565.00;3135742;28;19986;-66
2022/08/11 08:22:11;;;;;;;;;;;;;;;30.55;37.94;99572.66;3136254;28;19920;-66
2022/08/11 08:23:44;;;;;;;;;;;;;;;30.57;37.88;99559.84;3141727;28;19998;-65
2022/08/11 08:25:17;;;;;;;;;;;;;;;30.65;37.72;99567.72;3136296;28;19921;-66
2022/08/11 08:26:57;;;;;;;;;;;;;;;30.66;37.02;99569.38;3143582;28;20348;-66
2022/08/11 08:28:29;;;;;;;;;;;;;;;30.64;36.83;99573.28;3144628;28;19929;-66
2022/08/11 08:31:53;;;;;;;;;;;;;;;30.78;37.37;99561.53;3129455;28;19921;-64
2022/08/11 08:33:26;;;;;;;;;;;;;;;30.94;37.24;99560.28;3128927;28;19960;-64
2022/08/11 08:34:59;;;;;;;;;;;;;;;31.12;36.85;99552.44;3147010;28;19928;-65
2022/08/11 08:36:31;;;;;;;;;;;;;;;31.25;36.78;99557.78;3134575;28;19998;-65
2022/08/11 08:38:03;;;;;;;;;;;;;;;31.43;36.52;99554.47;3145349;28;19993;-65
2022/08/11 08:39:36;;;;;;;;;;;;;;;31.62;36.05;99557.31;3142789;28;19925;-65
2022/08/11 08:41:08;;;;;;;;;;;;;;;31.74;35.93;99558.31;3140745;28;19921;-65
2022/08/11 08:42:46;;;;;;;;;;;;;;;31.85;35.78;99554.94;3140115;28;19967;-65
2022/08/11 08:44:18;;;;;;;;;;;;;;;32.03;35.58;99556.13;3136111;28;19927;-65
2022/08/11 08:45:49;;;;;;;;;;;;;;;32.20;35.59;99556.47;3142338;28;19925;-65
2022/08/11 08:47:22;;;;;;;;;;;;;;;32.36;35.19;99555.94;3143475;28;19920;-65
2022/08/11 08:48:54;;;;;;;;;;;;;;;32.51;35.39;99558.38;3144186;28;19939;-65
2022/08/11 08:52:18;;;;;;;;;;;;;;;32.79;35.24;99558.78;3127904;28;19975;-66
2022/08/11 08:53:52;;;;;;;;;;;;;;;32.90;34.37;99561.81;3143206;28;19932;-68
2022/08/11 08:55:25;;;;;;;;;;;;;;;32.94;34.13;99560.31;3140562;28;19928;-67
2022/08/11 08:56:58;;;;;;;;;;;;;;;32.97;34.46;99547.22;3135436;28;19921;-67
2022/08/11 08:58:30;;;;;;;;;;;;;;;32.91;33.46;99548.09;3137454;28;19924;-67
2022/08/11 09:00:02;;;;;;;;;;;;;;;32.61;33.53;99550.63;3144508;28;19928;-67
2022/08/11 09:01:37;;;;;;;;;;;;;;;32.41;33.82;99548.84;3144249;28;20426;-66
2022/08/11 09:03:10;;;;;;;;;;;;;;;32.26;34.11;99545.66;3138341;28;20017;-67
2022/08/11 09:04:44;;;;;;;;;;;;;;;32.13;34.28;99540.34;3142097;28;19924;-67
2022/08/11 09:06:17;;;;;;;;;;;;;;;32.26;34.29;99545.66;3145971;28;20004;-68
2022/08/11 09:07:52;;;;;;;;;;;;;;;32.43;34.15;99539.75;3145770;28;19924;-68
2022/08/11 09:09:25;;;;;;;;;;;;;;;32.65;33.70;99532.97;3146802;28;20310;-66
2022/08/11 09:12:47;;;;;;;;;;;;;;;33.07;33.60;99536.78;3135173;28;20253;-69
2022/08/11 09:14:20;;;;;;;;;;;;;;;33.28;33.46;99534.72;3128435;28;20065;-66
2022/08/11 09:15:52;;;;;;;;;;;;;;;33.37;33.23;99544.16;3134811;28;19970;-66
2022/08/11 09:17:26;;;;;;;;;;;;;;;33.40;32.77;99530.22;3135394;28;20150;-66
2022/08/11 09:19:00;;;;;;;;;;;;;;;33.38;32.81;99528.78;3134859;28;19986;-66
2022/08/11 09:20:33;;;;;;;;;;;;;;;33.43;32.82;99523.56;3136493;28;20023;-66
2022/08/11 09:27:55;;;;;;;;;;;;;;;33.78;31.58;99525.63;3099222;28;19922;-67
2022/08/11 09:29:28;;;;;;;;;;;;;;;33.66;30.63;99525.56;3135387;28;19931;-67
2022/08/11 09:31:01;;;;;;;;;;;;;;;33.44;30.27;99514.38;3143026;28;20016;-66
2022/08/11 09:32:33;;;;;;;;;;;;;;;33.19;30.86;99519.84;3130567;28;20012;-65
2022/08/11 09:34:05;;;;;;;;;;;;;;;33.10;30.85;99516.63;3134521;28;20392;-67
2022/08/11 09:35:38;;;;;;;;;;;;;;;32.99;30.61;99514.66;3134786;28;20015;-67
2022/08/11 09:40:50;;;;;;;;;;;;;;;32.96;31.26;99505.13;3130314;28;19925;-67
2022/08/11 09:44:45;;;;;;;;;;;;;;;33.18;31.08;99510.94;3128677;28;19963;-67
2022/08/11 09:46:05;;;;;;;;;;;;;;;33.65;30.44;99500.44;3133136;28;19924;-66
2022/08/11 09:47:38;;;;;;;;;;;;;;;33.82;30.14;99502.53;3140333;28;19921;-66
2022/08/11 09:49:10;;;;;;;;;;;;;;;33.69;29.94;99495.41;3146964;28;19956;-66
2022/08/11 09:50:41;;;;;;;;;;;;;;;33.50;29.94;99495.41;3144683;28;19989;-65
2022/08/11 09:52:15;;;;;;;;;;;;;;;33.50;29.95;99494.59;3147605;28;20269;-64
2022/08/11 09:53:48;;;;;;;;;;;;;;;33.51;30.29;99494.41;3148366;28;19920;-64
2022/08/11 09:55:20;;;;;;;;;;;;;;;33.45;29.92;99491.72;3143286;28;19954;-64
2022/08/11 09:58:57;;;;;;;;;;;;;;;33.15;30.64;99488.97;3096876;28;19980;-63
2022/08/11 10:00:36;;;;;;;;;;;;;;;33.32;29.92;99489.22;3098975;28;19936;-64
2022/08/11 10:02:17;;;;;;;;;;;;;;;33.51;29.97;99486.31;3098249;28;20285;-63
2022/08/11 10:03:52;;;;;;;;;;;;;;;33.75;29.40;99484.53;3098592;28;19925;-63
2022/08/11 10:07:19;;;;;;;;;;;;;;;34.22;28.70;99488.47;3098659;28;19921;-64
2022/08/11 10:09:01;;;;;;;;;;;;;;;34.42;28.51;99492.50;3098671;28;19932;-63
2022/08/11 10:10:37;;;;;;;;;;;;;;;34.64;28.57;99487.41;3098413;28;20020;-64
2022/08/11 10:12:11;;;;;;;;;;;;;;;34.86;28.24;99484.94;3098502;28;20380;-63
2022/08/11 10:15:42;;;;;;;;;;;;;;;34.82;27.63;99491.06;3098672;28;19922;-63
2022/08/11 10:17:23;;;;;;;;;;;;;;;34.91;27.55;99484.25;3098537;28;19926;-63
2022/08/11 10:19:20;;;;;;;;;;;;;;;34.81;27.64;99484.00;3092158;28;19926;-63
2022/08/11 10:20:57;;;;;;;;;;;;;;;34.77;27.87;99480.13;3093937;28;20410;-63
2022/08/11 10:28:03;;;;;;;;;;;;;;;34.76;27.70;99478.47;3136421;28;19924;-63
2022/08/11 10:35:15;;;;;;;;;;;;;;;34.48;28.21;99471.84;3138762;28;20076;-64
2022/08/11 10:36:47;;;;;;;;;;;;;;;34.06;29.06;99471.06;3140097;28;19978;-63
2022/08/11 10:38:31;;;;;;;;;;;;;;;33.64;29.72;99471.81;3142285;28;19935;-64
2022/08/11 10:40:06;;;;;;;;;;;;;;;33.30;29.98;99465.94;3143233;28;19928;-63
2022/08/11 10:43:41;;;;;;;;;;;;;;;33.21;30.48;99461.91;3089291;28;20021;-64
2022/08/11 10:48:56;;;;;;;;;;;;;;;33.24;30.57;99457.94;3133886;28;20011;-62
2022/08/11 10:59:35;;;;;;;;;;;;;;;33.17;30.21;99443.72;3107958;28;19925;-63
2022/08/11 11:01:08;;;;;;;;;;;;;;;33.38;29.98;99448.63;3112645;28;19979;-63
2022/08/11 11:02:39;;;;;;;;;;;;;;;33.59;29.79;99444.66;3111106;28;19928;-63
2022/08/11 11:04:13;;;;;;;;;;;;;;;33.78;29.35;99445.47;3111341;28;19936;-63
2022/08/11 11:05:45;;;;;;;;;;;;;;;33.98;28.94;99443.25;3112803;28;20373;-62
2022/08/11 11:07:23;;;;;;;;;;;;;;;34.17;28.73;99445.94;3110520;28;19991;-63
2022/08/11 11:08:56;;;;;;;;;;;;;;;34.31;28.77;99443.84;3111096;28;19925;-63
2022/08/11 11:10:29;;;;;;;;;;;;;;;34.47;28.54;99440.44;3111064;28;20040;-63
2022/08/11 11:18:00;;;;;;;;;;;;;;;34.78;27.45;99428.47;3085522;28;20078;-64
2022/08/11 11:19:32;;;;;;;;;;;;;;;34.77;27.38;99431.44;3082427;28;19922;-62
2022/08/11 11:21:05;;;;;;;;;;;;;;;34.53;27.45;99427.88;3084865;28;20365;-63
2022/08/11 11:22:39;;;;;;;;;;;;;;;34.25;27.94;99431.25;3086126;28;19922;-63
2022/08/11 11:24:14;;;;;;;;;;;;;;;34.22;27.74;99427.13;3114744;28;20443;-63
2022/08/11 11:26:09;;;;;;;;;;;;;;;34.25;27.58;99429.38;3118241;28;19925;-64
2022/08/11 11:27:48;;;;;;;;;;;;;;;34.34;27.85;99417.19;3121479;28;19925;-64
2022/08/11 11:29:27;;;;;;;;;;;;;;;34.53;27.63;99420.59;3109948;28;20024;-63
2022/08/11 11:31:06;;;;;;;;;;;;;;;34.60;27.26;99412.38;3109564;28;19951;-63
2022/08/11 11:32:44;;;;;;;;;;;;;;;34.33;27.02;99420.91;3109445;28;19921;-63
2022/08/11 11:34:31;;;;;;;;;;;;;;;33.95;27.32;99421.28;3109253;28;19925;-65
2022/08/11 11:36:12;;;;;;;;;;;;;;;33.84;27.71;99414.81;3111052;28;19921;-64
2022/08/11 11:37:45;;;;;;;;;;;;;;;33.96;27.32;99409.47;3111778;28;19925;-64
2022/08/11 11:39:18;;;;;;;;;;;;;;;34.08;27.58;99404.94;3110433;28;19945;-65
2022/08/11 11:41:23;;;;;;;;;;;;;;;34.24;27.46;99399.88;3108974;28;19922;-65
2022/08/11 11:42:44;;;;;;;;;;;;;;;34.29;27.30;99402.72;3112748;28;20313;-65